Bethlehem, Mississippi
Current Conditions -  °F | °C
As of 6:55 PM on Saturday 22 Nov 2014 (Local Time) from KUOX Reporting Station
Clear Clear  
Wind Chill: 57°   Ceiling: Unl
Heat Index: 57°   Visibility: 10mi
Dew Point: 45°   Wind: 9mph
Humidity: 63%   Direction: 150°SSE
Pressure: 30.08"   Gusts: NA
Location:  34.5725°N, 89.3417°W
Report Text: KUOX 230055Z AUTO 15008KT 10SM CLR 14/07 A3008 RMK AO2 PWINO PNO
Loading
Personal Weather Stations






























Interactive Weather Map New forecast layout! Learn more

10-Day Weather Forecast

Advertisements
Track Severe Weather on mobile